Terminal Aerodrome Forecast
Issued by NWS

Home | Current Version | Previous Version | Text Only | Print | Product List | Glossary On
Versions: 1 2 3 4 5 6 7 8 9 10 11 12 13 14
064
FTUS43 KAPX 252342
TAFMBL
TAF
KMBL 252342Z 2600/2624 VRB03KT P6SM BKN250
     FM260400 13004KT P6SM -SHRA SCT060 OVC090
     FM260700 14006KT 6SM BR VCSH SCT020 BKN090
     FM261300 18007KT P6SM SCT040
     FM261900 20007KT P6SM FEW060
      AMD LTD TO CLD VIS AND WIND=

USA.gov is the U.S. government's official web portal to all federal, state and local government web resources and services.